• Join FlightAware (Why Join?)
  • Login
  • US Flag 
01:44PM EDT


 

Airport Tracker/Info


-or-


 

Live Flight TrackerFlight Track Log ✈ EJA396 ✈ 28-Sep-2013 ✈ KVJI - KJFK

Flight Track Log - Related Links

Times and Time Zones

All times are in EDT time to prevent confusion due to time zone crossing. See the EJA396 flight status page for this flight to view local times or setup timezone preferences in your user account.

Time Position Orientation Groundspeed Altitude Reporting Facility
EDT Latitude Longitude Course Direction KTS MPH feet Rate Location/Type
11:11AM 36.7242 -81.9306 58° Northeast 225 259 8,200  Level Atlanta Center
11:12AM 36.7497 -81.8444 70° East 252 290 10,300 2,700 Climbing Atlanta Center
11:14AM 36.8167 -81.6300 69° East 331 381 16,400 2,820 Climbing Atlanta Center
11:15AM 36.8458 -81.5228 71° East 331 381 18,800 2,400 Climbing Atlanta Center
11:16AM 37.0585 -81.3410 58° Northeast  Level Estimated
11:16AM 36.8686 -81.4131 75° East 326 375 21,300  Level Atlanta Center
11:17AM 36.8969 -81.2822 75° East 332 382 24,200 2,520 Climbing Atlanta Center
11:18AM 36.9192 -81.1647 77° East 337 388 26,400 2,100 Climbing Atlanta Center
11:19AM 36.9433 -81.0417 76° East 343 395 28,400 1,920 Climbing Atlanta Center
11:20AM 36.9672 -80.9136 77° East 358 412 30,300 1,740 Climbing Atlanta Center
11:22AM 37.0244 -80.6311 76° East 357 411 34,300 1,500 Climbing Washington Center
11:23AM 37.0506 -80.5053 75° East 363 418 35,400 1,020 Climbing Washington Center
11:24AM 37.0722 -80.3764 78° East 375 432 36,400 780 Climbing Washington Center
11:25AM 37.0961 -80.2531 76° East 387 445 37,000 240 Climbing Washington Center
11:26AM 37.1242 -80.1139 76° East 398 458 37,000  Level Washington Center
11:27AM 37.1506 -79.9697 77° East 415 478 37,000  Level Washington Center
11:28AM 37.1767 -79.8250 77° East 415 478 37,000  Level Washington Center
11:29AM 37.2050 -79.6678 77° East 423 487 37,000  Level Washington Center
11:30AM 37.2308 -79.5228 77° East 423 487 37,000  Level Washington Center
11:31AM 37.2561 -79.3806 77° East 428 493 37,000  Level Washington Center
11:32AM 37.2750 -79.2458 80° East 423 487 37,000  Level Washington Center
11:33AM 37.2878 -79.0978 84° East 423 487 37,000  Level Washington Center
11:34AM 37.3008 -78.9339 84° East 428 493 37,000  Level Washington Center
11:35AM 37.3133 -78.7828 84° East 428 493 37,000  Level Washington Center
11:36AM 37.3253 -78.6344 84° East 423 487 37,000  Level Washington Center
11:37AM 37.3375 -78.4861 84° East 423 487 37,000  Level Washington Center
11:38AM 37.3469 -78.3533 85° East 423 487 37,000  Level Washington Center
11:39AM 37.3564 -78.2019 85° East 423 487 37,000  Level Washington Center
11:40AM 37.3617 -78.0558 87° East 423 487 37,000  Level Washington Center
11:41AM 37.3728 -77.9100 84° East 423 487 37,000  Level Washington Center
11:42AM 37.3842 -77.7456 85° East 423 487 37,000  Level Washington Center
11:43AM 37.3931 -77.5942 86° East 423 487 37,000  Level Washington Center
11:44AM 37.4039 -77.4481 85° East 423 487 37,000  Level Washington Center
11:45AM 37.4144 -77.2992 85° East 423 487 37,000  Level Washington Center
11:46AM 37.4206 -77.1450 87° East 423 487 37,000  Level Washington Center
11:47AM 37.4286 -77.0092 86° East 438 504 37,000  Level Washington Center
11:48AM 37.4367 -76.8500 86° East 427 491 37,000  Level Washington Center
11:49AM 37.4483 -76.7114 84° East 427 491 37,000  Level Washington Center
11:50AM 37.4725 -76.5731 78° East 421 484 37,000  Level Washington Center
11:51AM 37.5464 -76.4744 47° Northeast 377 434 37,000  Level Washington Center
11:52AM 37.6222 -76.3811 44° Northeast 377 434 37,000  Level Washington Center
11:53AM 37.6997 -76.2847 45° Northeast 377 434 37,000  Level Washington Center
11:54AM 37.7733 -76.1933 44° Northeast 371 427 37,000  Level Washington Center
11:55AM 37.8489 -76.1019 44° Northeast 371 427 37,000  Level Washington Center
11:56AM 37.9242 -76.0050 45° Northeast 377 434 37,000  Level Washington Center
11:57AM 37.9997 -75.9106 45° Northeast 382 440 37,000  Level Washington Center
11:58AM 38.0686 -75.8239 45° Northeast 382 440 37,000  Level Washington Center
11:59AM 38.1606 -75.7106 44° Northeast 382 440 37,000  Level Washington Center
12:00PM 38.2336 -75.6181 45° Northeast 382 440 37,000  Level Washington Center
12:01PM 38.3086 -75.5231 45° Northeast 382 440 37,000  Level Washington Center
12:02PM 38.3775 -75.4356 45° Northeast 388 447 37,000  Level Washington Center
12:03PM 38.4544 -75.3425 43° Northeast 377 434 37,000  Level Washington Center
12:04PM 38.5292 -75.2442 46° Northeast 377 434 37,000  Level Washington Center
12:05PM 38.6039 -75.1481 45° Northeast 377 434 37,000 -540 Level Washington Center
12:06PM 38.6869 -75.0597 40° Northeast 382 440 36,000 -1,440 Descending Washington Center
12:07PM 38.7783 -74.9819 34° Northeast 387 445 34,200 -1,920 Descending Washington Center
12:08PM 38.8717 -74.9011 34° Northeast 393 452 32,300 -1,920 Descending Washington Center
12:09PM 38.9692 -74.8172 34° Northeast 409 471 30,400 -1,980 Descending Washington Center
12:10PM 39.0686 -74.7308 34° Northeast 421 484 28,400 -1,980 Descending Washington Center
12:12PM 39.2625 -74.5597 34° Northeast 421 484 24,600 -1,920 Descending New York Center
12:13PM 39.3550 -74.4761 35° Northeast 415 478 22,700 -1,860 Descending New York Center
12:14PM 39.4450 -74.3975 34° Northeast 403 464 20,900 -1,860 Descending New York Center
12:15PM 39.5350 -74.3158 35° Northeast 393 452 19,100 -1,620 Descending New York Center
12:16PM 39.6297 -74.2208 38° Northeast 385 443 17,800 -1,260 Descending New York Center
12:17PM 39.7114 -74.1333 39° Northeast 379 436 16,600 -1,440 Descending New York Center
12:18PM 39.7911 -74.0453 40° Northeast 379 436 14,900 -1,560 Descending New York Center
12:19PM 39.8617 -73.9783 36° Northeast 364 419 13,600 -1,380 Descending New York Center
12:20PM 39.9467 -73.9144 30° Northeast 349 402 12,200 -1,320 Descending New York Center
12:21PM 40.0294 -73.8639 25° Northeast 314 361 11,000 -720 Descending New York Center
12:22PM 40.1014 -73.8211 24° Northeast 286 329 10,800 -1,140 Descending New York Center
12:23PM 40.1714 -73.7753 27° Northeast 278 320 8,800 -2,160 Descending New York Center
12:24PM 40.2331 -73.7208 34° Northeast 265 305 6,600 -2,040 Descending New York Center
12:25PM 40.2886 -73.6633 38° Northeast 260 299 4,800 -1,920 Descending New York Center
12:26PM 40.3522 -73.6253 25° Northeast 250 288 2,800 -1,320 Descending New York Center
12:27PM 40.4192 -73.6172 North 240 276 2,200 -360 Descending New York Center
12:29PM 40.4833 -73.6333 349° North 199 229 2,000 -120 Descending New York TRACON
12:30PM 40.5333 -73.6667 333° Northwest 194 223 2,000 -300 Level New York TRACON
12:31PM 40.5833 -73.7167 323° Northwest 182 209 1,500 -660 Descending New York TRACON
12:32PM 40.6167 -73.7500 323° Northwest 145 167 800 3,420 Descending New York TRACON
12:33PM 40.6686 -73.8053 321° Northwest 153 176 11,000 3,660 Climbing New York Center
12:34PM 40.7031 -73.8397 323° Northwest 153 176 11,000  Level New York Center